• pl
  • eng

Awiacja
TAF FC 00:30 22.01.2017
  • WIND
  • SIGNIFICANT EURO
  • SIGNIFICANT
  • SIGMET
  • AIRMET
  • TAF FC
  • TAF FT
  • METAR GG30
  • METAR GG00


TAF EPLB 212330Z 2200/2209 VRB03KT 2000 BR OVC005
TEMPO 2200/2208 0400 FZFG OVC001
PROB30 TEMPO 2200/2209 -FZDZ=

TAF EPRA 212300Z NIL=

TAF EPSY 212300Z NIL=

TAF EPZG 212300Z NIL=
Awiacja.imgw.pl jest pogodowym serwisem informacyjnym
Instytutu Meteorologii i Gospodarki Wodnej Państwowego Instytutu Badawczego.
Copyright IMGW PIB 2009-2011© Wszelkie prawa zastrzeżone.